createdAt,value
2023-01-23T00:01:37.688Z,7.40
2023-01-23T00:04:06.859Z,7.30
2023-01-23T00:06:35.974Z,7.30
2023-01-23T00:09:05.240Z,7.30
2023-01-23T00:11:34.602Z,7.30
2023-01-23T00:14:04.639Z,7.30
2023-01-23T00:16:36.330Z,7.30
2023-01-23T00:19:05.419Z,7.30
2023-01-23T00:21:34.329Z,7.20
2023-01-23T00:24:03.536Z,7.10
2023-01-23T00:26:34.319Z,7.10
2023-01-23T00:29:04.747Z,7.10
2023-01-23T00:31:37.526Z,7.00
2023-01-23T00:34:08.230Z,7.00
2023-01-23T00:36:39.115Z,7.00
2023-01-23T00:39:10.416Z,6.90
2023-01-23T00:41:39.530Z,6.90
2023-01-23T00:44:08.604Z,6.90
2023-01-23T00:46:39.047Z,6.90
2023-01-23T00:49:08.707Z,6.90
2023-01-23T00:51:37.668Z,6.90
2023-01-23T00:54:06.852Z,6.90
2023-01-23T00:56:35.956Z,6.90
2023-01-23T00:59:04.986Z,6.90
2023-01-23T01:01:34.203Z,6.80
2023-01-23T01:04:05.208Z,6.80
2023-01-23T01:06:34.257Z,6.70
2023-01-23T01:09:03.293Z,6.70
2023-01-23T01:11:32.466Z,6.60
2023-01-23T01:14:02.292Z,6.60
2023-01-23T01:16:31.331Z,6.50
2023-01-23T01:19:00.994Z,6.50
2023-01-23T01:21:31.818Z,6.50
2023-01-23T01:24:00.908Z,6.50
2023-01-23T01:26:29.988Z,6.50
2023-01-23T01:28:59.036Z,6.50
2023-01-23T01:31:28.174Z,6.50
2023-01-23T01:33:57.071Z,6.50
2023-01-23T01:36:27.440Z,6.50
2023-01-23T01:38:57.914Z,6.50
2023-01-23T01:41:27.251Z,6.60
2023-01-23T01:43:57.619Z,6.60
2023-01-23T01:46:28.184Z,6.60
2023-01-23T01:49:09.049Z,6.60
2023-01-23T01:51:42.751Z,6.60
2023-01-23T01:54:23.044Z,6.60
2023-01-23T01:56:57.046Z,6.70
2023-01-23T01:59:28.697Z,6.70
2023-01-23T02:02:05.405Z,6.70
2023-01-23T02:04:36.522Z,6.80
2023-01-23T02:07:10.975Z,6.80
2023-01-23T02:09:42.413Z,6.80
2023-01-23T02:12:11.485Z,6.90
2023-01-23T02:14:43.316Z,6.90
2023-01-23T02:17:12.643Z,6.90
2023-01-23T02:19:49.824Z,7.00
2023-01-23T02:22:29.551Z,7.00
2023-01-23T02:25:08.143Z,7.00
2023-01-23T02:27:38.616Z,7.10
2023-01-23T02:30:08.912Z,7.10
2023-01-23T02:32:38.034Z,7.00
2023-01-23T02:35:14.358Z,7.00
2023-01-23T02:37:48.240Z,7.00
2023-01-23T02:40:18.476Z,6.80
2023-01-23T02:42:50.703Z,6.70
2023-01-23T02:45:20.592Z,6.50
2023-01-23T02:47:49.483Z,6.40
2023-01-23T02:50:19.482Z,6.30
2023-01-23T02:53:07.604Z,6.20
2023-01-23T02:55:39.529Z,6.10
2023-01-23T02:58:27.687Z,6.10
2023-01-23T03:00:57.112Z,6.10
2023-01-23T03:03:26.384Z,6.00
2023-01-23T03:05:55.926Z,6.00
2023-01-23T03:08:34.635Z,6.00
2023-01-23T03:11:05.552Z,6.00
2023-01-23T03:13:36.039Z,6.00
2023-01-23T03:16:08.142Z,5.90
2023-01-23T03:18:52.737Z,5.90
2023-01-23T03:21:42.288Z,5.90
2023-01-23T03:24:14.012Z,5.90
2023-01-23T03:26:43.995Z,5.80
2023-01-23T03:29:34.682Z,5.80
2023-01-23T03:32:04.181Z,5.80
2023-01-23T03:34:33.669Z,5.70
2023-01-23T03:37:03.519Z,5.70
2023-01-23T03:39:51.813Z,5.70
2023-01-23T03:42:22.619Z,5.70
2023-01-23T03:44:55.585Z,5.70
2023-01-23T03:47:27.841Z,5.70
2023-01-23T03:49:57.734Z,5.70
2023-01-23T03:52:27.261Z,5.70
2023-01-23T03:54:56.321Z,5.60
2023-01-23T03:57:25.399Z,5.60
2023-01-23T04:00:02.020Z,5.60
2023-01-23T04:02:42.688Z,5.50
2023-01-23T04:05:14.852Z,5.50
2023-01-23T04:07:45.005Z,5.50
2023-01-23T04:10:14.104Z,5.40
2023-01-23T04:12:44.927Z,5.40
2023-01-23T04:15:16.192Z,5.30
2023-01-23T04:17:46.165Z,5.30
2023-01-23T04:20:15.820Z,5.30
2023-01-23T04:22:46.004Z,5.20
2023-01-23T04:25:16.353Z,5.20
2023-01-23T04:27:45.388Z,5.20
2023-01-23T04:30:16.639Z,5.20
2023-01-23T04:32:45.562Z,5.20
2023-01-23T04:35:16.876Z,5.20
2023-01-23T04:37:46.118Z,5.20
2023-01-23T04:40:15.452Z,5.10
2023-01-23T04:42:55.768Z,5.10
2023-01-23T04:45:39.277Z,5.10
2023-01-23T04:48:16.983Z,5.10
2023-01-23T04:50:45.940Z,5.10
2023-01-23T04:53:15.442Z,5.10
2023-01-23T04:55:45.389Z,5.10
2023-01-23T04:58:17.123Z,5.40
2023-01-23T05:00:48.236Z,5.10
2023-01-23T05:03:18.470Z,5.20
2023-01-23T05:05:49.785Z,5.20
2023-01-23T05:08:18.912Z,5.30
2023-01-23T05:10:55.582Z,5.30
2023-01-23T05:13:24.997Z,5.30
2023-01-23T05:15:56.473Z,5.40
2023-01-23T05:18:25.744Z,5.40
2023-01-23T05:20:55.799Z,5.50
2023-01-23T05:23:24.949Z,5.50
2023-01-23T05:25:55.995Z,5.50
2023-01-23T05:28:25.853Z,5.60
2023-01-23T05:30:58.987Z,5.30
2023-01-23T05:33:37.787Z,5.60
2023-01-23T05:36:08.350Z,5.60
2023-01-23T05:38:38.635Z,5.70
2023-01-23T05:41:07.694Z,5.60
2023-01-23T05:43:56.899Z,5.70
2023-01-23T05:46:49.637Z,5.60
2023-01-23T05:49:18.736Z,5.60
2023-01-23T05:51:47.770Z,5.50
2023-01-23T05:54:16.940Z,5.50
2023-01-23T05:56:47.825Z,5.50
2023-01-23T05:59:35.297Z,5.50
2023-01-23T06:02:22.126Z,5.60
2023-01-23T06:05:17.760Z,5.70
2023-01-23T06:08:12.912Z,5.80
2023-01-23T06:10:44.094Z,5.90
2023-01-23T06:13:13.677Z,6.00
2023-01-23T06:15:44.355Z,6.10
2023-01-23T06:18:15.978Z,6.30
2023-01-23T06:20:45.128Z,6.50
2023-01-23T06:23:15.189Z,6.60
2023-01-23T06:25:44.153Z,6.80
2023-01-23T06:28:14.514Z,6.90
2023-01-23T06:30:44.521Z,7.10
2023-01-23T06:33:26.326Z,7.20
2023-01-23T06:36:00.126Z,7.30
2023-01-23T06:38:29.980Z,7.40
2023-01-23T06:41:00.845Z,7.50
2023-01-23T06:43:34.313Z,7.70
2023-01-23T06:46:03.498Z,7.80
2023-01-23T06:48:34.392Z,8.00
2023-01-23T06:51:03.870Z,8.10
2023-01-23T06:53:34.054Z,8.30
2023-01-23T06:56:05.643Z,8.50
2023-01-23T06:58:53.435Z,8.80
2023-01-23T07:01:30.606Z,9.10
2023-01-23T07:04:22.709Z,9.50
2023-01-23T07:06:53.214Z,10.00
2023-01-23T07:09:23.121Z,10.50
2023-01-23T07:12:01.320Z,10.90
2023-01-23T07:14:32.720Z,11.40
2023-01-23T07:17:01.901Z,11.80
2023-01-23T07:19:33.688Z,12.20
2023-01-23T07:22:04.046Z,12.50
2023-01-23T07:24:33.264Z,12.80
2023-01-23T07:27:02.249Z,13.10
2023-01-23T07:29:31.343Z,13.40
2023-01-23T07:32:01.845Z,13.60
2023-01-23T07:34:30.968Z,13.70
2023-01-23T07:37:01.517Z,13.80
2023-01-23T07:39:30.563Z,13.80
2023-01-23T07:41:59.474Z,13.80
2023-01-23T07:44:30.628Z,13.80
2023-01-23T07:46:59.662Z,13.80
2023-01-23T07:49:30.126Z,13.80
2023-01-23T07:52:00.552Z,13.80
2023-01-23T07:54:29.668Z,14.00
2023-01-23T07:56:58.587Z,14.20
2023-01-23T07:59:27.525Z,14.40
2023-01-23T08:01:56.512Z,14.70
2023-01-23T08:04:25.532Z,15.00
2023-01-23T08:06:54.420Z,15.10
2023-01-23T08:09:25.023Z,15.10
2023-01-23T08:11:54.208Z,15.00
2023-01-23T08:14:23.246Z,15.00
2023-01-23T08:16:53.168Z,15.10
2023-01-23T08:19:22.158Z,15.20
2023-01-23T08:21:51.115Z,15.40
2023-01-23T08:24:20.029Z,15.60
2023-01-23T08:26:50.478Z,15.80
2023-01-23T08:29:19.484Z,15.90
2023-01-23T08:31:48.711Z,16.00
2023-01-23T08:34:17.681Z,16.10
2023-01-23T08:36:46.741Z,16.20
2023-01-23T08:39:15.686Z,16.30
2023-01-23T08:41:44.813Z,16.40
2023-01-23T08:44:15.371Z,16.40
2023-01-23T08:46:45.099Z,16.50
2023-01-23T08:49:14.453Z,16.60
2023-01-23T08:51:43.372Z,16.90
2023-01-23T08:54:12.317Z,17.30
2023-01-23T08:56:42.505Z,17.70
2023-01-23T08:59:12.146Z,18.10
2023-01-23T09:01:43.453Z,18.60
2023-01-23T09:04:12.652Z,19.00
2023-01-23T09:06:41.541Z,19.20
2023-01-23T09:09:10.479Z,19.30
2023-01-23T09:11:39.649Z,19.30
2023-01-23T09:14:08.630Z,19.40
2023-01-23T09:16:38.052Z,19.40
2023-01-23T09:19:10.527Z,19.50
2023-01-23T09:21:40.102Z,19.70
2023-01-23T09:24:09.723Z,20.00
2023-01-23T09:26:38.779Z,20.30
2023-01-23T09:29:07.773Z,20.60
2023-01-23T09:31:36.895Z,20.80
2023-01-23T09:34:06.090Z,21.00
2023-01-23T09:36:42.826Z,21.20
2023-01-23T09:39:13.161Z,21.20
2023-01-23T09:41:42.905Z,21.20
2023-01-23T09:44:15.649Z,21.30
2023-01-23T09:46:49.682Z,21.40
2023-01-23T09:49:26.101Z,21.30
2023-01-23T09:52:02.007Z,21.40
2023-01-23T09:54:44.674Z,21.40
2023-01-23T09:57:17.698Z,21.40
2023-01-23T10:00:00.748Z,21.30
2023-01-23T10:02:30.683Z,21.40
2023-01-23T10:05:02.777Z,21.50
2023-01-23T10:07:46.386Z,21.60
2023-01-23T10:10:45.669Z,21.60
2023-01-23T10:13:18.669Z,21.60
2023-01-23T10:16:13.029Z,21.60
2023-01-23T10:18:49.068Z,21.60
2023-01-23T10:21:27.143Z,21.80
2023-01-23T10:24:06.176Z,21.90
2023-01-23T10:26:40.067Z,21.90
2023-01-23T10:29:17.068Z,21.70
2023-01-23T10:31:51.539Z,21.60
2023-01-23T10:34:28.395Z,21.70
2023-01-23T10:37:17.106Z,21.80
2023-01-23T10:39:52.442Z,21.70
2023-01-23T10:42:24.090Z,21.60
2023-01-23T10:44:53.391Z,21.60
2023-01-23T10:47:32.874Z,21.60
2023-01-23T10:50:02.836Z,21.60
2023-01-23T10:52:35.198Z,21.60
2023-01-23T10:55:07.694Z,21.60
2023-01-23T10:57:48.612Z,21.70
2023-01-23T11:00:26.235Z,21.60
2023-01-23T11:02:55.659Z,21.40
2023-01-23T11:05:51.141Z,21.20
2023-01-23T11:08:27.432Z,20.90
2023-01-23T11:11:25.640Z,20.60
2023-01-23T11:14:18.471Z,20.20
2023-01-23T11:16:59.533Z,19.90
2023-01-23T11:19:28.635Z,19.60
2023-01-23T11:21:59.408Z,19.20
2023-01-23T11:24:40.872Z,18.90
2023-01-23T11:27:21.187Z,18.50
2023-01-23T11:30:05.549Z,18.10
2023-01-23T11:32:42.813Z,17.90
2023-01-23T11:35:16.216Z,17.70
2023-01-23T11:37:45.344Z,17.50
2023-01-23T11:40:16.405Z,17.30
2023-01-23T11:42:47.758Z,17.20
2023-01-23T11:45:25.021Z,17.10
2023-01-23T11:48:13.537Z,17.00
2023-01-23T11:50:55.364Z,16.90
2023-01-23T11:53:48.470Z,16.90
2023-01-23T11:56:41.452Z,16.80
2023-01-23T11:59:47.645Z,16.80
2023-01-23T12:02:52.341Z,16.80
2023-01-23T12:05:38.770Z,16.70
2023-01-23T12:08:20.973Z,16.70
2023-01-23T12:10:58.745Z,16.60
2023-01-23T12:13:45.592Z,16.60
2023-01-23T12:16:25.889Z,16.50
2023-01-23T12:19:12.005Z,16.50
2023-01-23T12:21:47.927Z,16.40
2023-01-23T12:24:27.073Z,16.40
2023-01-23T12:27:02.764Z,16.40
2023-01-23T12:29:46.358Z,16.40
2023-01-23T12:32:45.424Z,16.40
2023-01-23T12:35:37.223Z,16.40
2023-01-23T12:38:16.539Z,16.40
2023-01-23T12:40:51.578Z,16.40
2023-01-23T12:43:29.498Z,16.50
2023-01-23T12:46:05.984Z,16.40
2023-01-23T12:48:41.091Z,16.40
2023-01-23T12:51:15.708Z,16.40
2023-01-23T12:53:47.214Z,16.40
2023-01-23T12:56:19.157Z,16.40
2023-01-23T12:58:55.151Z,16.30
2023-01-23T13:01:51.285Z,16.30
2023-01-23T13:04:41.427Z,16.30
2023-01-23T13:07:32.925Z,16.30
2023-01-23T13:10:23.272Z,16.20
2023-01-23T13:12:57.537Z,16.20
2023-01-23T13:15:40.482Z,16.20
2023-01-23T13:18:24.452Z,16.20
2023-01-23T13:21:17.378Z,16.20
2023-01-23T13:23:46.872Z,16.10
2023-01-23T13:26:33.502Z,16.10
2023-01-23T13:29:04.454Z,16.10
2023-01-23T13:31:42.698Z,16.00
2023-01-23T13:34:38.401Z,15.90
2023-01-23T13:37:51.532Z,15.90
2023-01-23T13:40:24.810Z,15.80
2023-01-23T13:42:54.224Z,15.80
2023-01-23T13:45:31.165Z,15.70
2023-01-23T14:20:27.735Z,15.20
2023-01-23T14:22:56.952Z,15.20
2023-01-23T14:25:26.544Z,15.20
2023-01-23T14:28:04.910Z,15.20
2023-01-23T14:30:35.358Z,15.10
2023-01-23T14:33:13.250Z,15.00
2023-01-23T14:36:00.984Z,15.00
2023-01-23T14:38:34.690Z,14.90
2023-01-23T14:41:08.716Z,14.80
2023-01-23T14:43:38.871Z,14.70
2023-01-23T14:46:17.506Z,14.60
2023-01-23T14:48:51.465Z,14.50
2023-01-23T14:51:24.951Z,14.40
2023-01-23T14:53:57.558Z,14.30
2023-01-23T14:56:30.115Z,14.20
2023-01-23T14:59:05.609Z,14.10
2023-01-23T15:01:36.525Z,14.00
2023-01-23T15:04:07.083Z,13.90
2023-01-23T15:06:37.853Z,13.80
2023-01-23T15:09:10.204Z,13.70
2023-01-23T15:11:39.382Z,13.60
2023-01-23T15:14:21.949Z,13.50
2023-01-23T15:16:53.014Z,13.40
2023-01-23T15:19:23.910Z,13.30
2023-01-23T15:22:05.963Z,13.20
2023-01-23T15:24:35.200Z,13.10
2023-01-23T15:27:07.836Z,13.10
2023-01-23T15:29:37.306Z,13.00
2023-01-23T15:32:21.530Z,12.90
2023-01-23T15:35:18.083Z,12.80
2023-01-23T15:37:49.575Z,12.70
2023-01-23T15:40:28.366Z,12.60
2023-01-23T15:43:05.853Z,12.50
2023-01-23T15:45:35.263Z,12.50
2023-01-23T15:48:06.235Z,12.40
2023-01-23T15:50:35.184Z,12.40
2023-01-23T15:53:04.299Z,12.30
2023-01-23T15:55:33.173Z,12.20
2023-01-23T15:58:03.053Z,12.10
2023-01-23T16:00:32.343Z,12.10
2023-01-23T16:03:01.698Z,12.00
2023-01-23T16:05:35.549Z,12.00
2023-01-23T16:08:07.207Z,11.90
2023-01-23T16:10:39.536Z,11.90
2023-01-23T16:13:09.304Z,11.80
2023-01-23T16:15:40.361Z,11.80
2023-01-23T16:18:12.073Z,11.70
2023-01-23T16:20:46.082Z,11.70
2023-01-23T16:23:20.067Z,11.60
2023-01-23T16:25:49.953Z,11.60
2023-01-23T16:28:21.394Z,11.60
2023-01-23T16:30:52.247Z,11.60
2023-01-23T16:33:22.196Z,11.50
2023-01-23T16:35:53.364Z,11.50
2023-01-23T16:38:24.474Z,11.50
2023-01-23T16:40:54.800Z,11.50
2023-01-23T16:43:24.421Z,11.40
2023-01-23T16:45:56.604Z,11.40
2023-01-23T16:48:27.716Z,11.30
2023-01-23T16:51:02.841Z,11.30
2023-01-23T16:53:34.832Z,11.20
2023-01-23T16:56:04.839Z,11.20
2023-01-23T16:58:41.264Z,11.10
2023-01-23T17:01:17.541Z,11.00
2023-01-23T17:03:47.084Z,11.00
2023-01-23T17:06:18.397Z,10.90
2023-01-23T17:08:47.987Z,10.80
2023-01-23T17:11:21.527Z,10.70
2023-01-23T17:13:54.544Z,10.60
2023-01-23T17:16:27.597Z,10.50
2023-01-23T17:19:00.336Z,10.40
2023-01-23T17:21:35.323Z,10.30
2023-01-23T17:24:04.675Z,10.20
2023-01-23T17:26:33.722Z,10.20
2023-01-23T17:29:02.971Z,10.10
2023-01-23T17:31:33.937Z,10.10
2023-01-23T17:34:05.458Z,10.10
2023-01-23T17:36:39.618Z,10.00
2023-01-23T17:39:09.220Z,10.00
2023-01-23T17:41:39.228Z,10.00
2023-01-23T17:44:09.549Z,10.00
2023-01-23T17:46:39.729Z,10.00
2023-01-23T17:49:29.588Z,9.90
2023-01-23T17:52:01.783Z,9.90
2023-01-23T17:54:31.119Z,9.90
2023-01-23T17:57:00.004Z,9.80
2023-01-23T17:59:28.880Z,9.60
2023-01-23T18:02:27.305Z,9.70
2023-01-23T18:04:56.749Z,9.70
2023-01-23T18:07:27.359Z,9.60
2023-01-23T18:09:56.529Z,9.60
2023-01-23T18:12:34.538Z,9.30
2023-01-23T18:15:10.578Z,9.50
2023-01-23T18:17:47.156Z,9.50
2023-01-23T18:20:21.500Z,9.50
2023-01-23T18:22:53.661Z,9.50
2023-01-23T18:25:25.239Z,9.50
2023-01-23T18:27:56.313Z,9.50
2023-01-23T18:30:53.138Z,9.50
2023-01-23T18:33:46.226Z,9.50
2023-01-23T18:36:31.800Z,9.50
2023-01-23T18:39:21.591Z,9.50
2023-01-23T18:42:04.021Z,9.50
2023-01-23T18:44:35.922Z,9.50
2023-01-23T18:47:10.654Z,9.50
2023-01-23T18:49:41.571Z,9.40
2023-01-23T18:52:14.361Z,9.40
2023-01-23T18:54:54.835Z,9.50
2023-01-23T18:57:45.327Z,9.50
2023-01-23T19:00:20.705Z,9.60
2023-01-23T19:02:52.751Z,9.60
2023-01-23T19:05:29.842Z,9.70
2023-01-23T19:08:00.808Z,9.70
2023-01-23T19:10:47.506Z,9.80
2023-01-23T19:13:22.140Z,9.80
2023-01-23T19:16:01.469Z,9.80
2023-01-23T19:18:47.741Z,9.70
2023-01-23T19:21:23.864Z,9.80
2023-01-23T19:24:00.772Z,9.70
2023-01-23T19:26:51.117Z,9.70
2023-01-23T19:29:22.728Z,9.70
2023-01-23T19:32:04.643Z,9.60
2023-01-23T19:34:35.281Z,9.60
2023-01-23T19:37:05.045Z,9.60
2023-01-23T19:39:34.093Z,9.60
2023-01-23T19:42:05.229Z,9.50
2023-01-23T19:44:34.377Z,9.50
2023-01-23T19:47:05.733Z,9.50
2023-01-23T19:49:35.057Z,9.40
2023-01-23T19:52:23.912Z,9.40
2023-01-23T19:54:53.054Z,9.40
2023-01-23T19:57:23.796Z,9.30
2023-01-23T19:59:52.813Z,9.30
2023-01-23T20:02:25.356Z,9.30
2023-01-23T20:04:57.427Z,9.20
2023-01-23T20:07:26.741Z,9.20
2023-01-23T20:09:56.025Z,9.20
2023-01-23T20:12:26.557Z,9.20
2023-01-23T20:14:58.340Z,9.20
2023-01-23T20:17:27.564Z,9.20
2023-01-23T20:19:56.700Z,9.20
2023-01-23T20:22:25.706Z,9.20
2023-01-23T20:24:55.169Z,9.10
2023-01-23T20:27:25.624Z,9.10
2023-01-23T20:29:54.807Z,9.10
2023-01-23T20:32:23.864Z,9.10
2023-01-23T20:34:55.543Z,9.10
2023-01-23T20:37:24.583Z,9.10
2023-01-23T20:39:53.591Z,9.00
2023-01-23T20:42:22.727Z,9.00
2023-01-23T20:44:53.234Z,9.00
2023-01-23T20:47:22.343Z,9.00
2023-01-23T20:49:51.453Z,9.10
2023-01-23T20:52:38.039Z,9.10
2023-01-23T20:55:07.956Z,9.10
2023-01-23T20:57:54.184Z,9.10
2023-01-23T21:00:25.019Z,9.10
2023-01-23T21:02:54.249Z,9.10
2023-01-23T21:05:23.508Z,9.10
2023-01-23T21:07:52.721Z,9.10
2023-01-23T21:10:21.887Z,9.10
2023-01-23T21:12:50.936Z,9.10
2023-01-23T21:15:20.455Z,9.10
2023-01-23T21:17:51.151Z,9.10
2023-01-23T21:20:20.246Z,9.10
2023-01-23T21:22:49.295Z,9.10
2023-01-23T21:25:18.478Z,9.10
2023-01-23T21:27:48.762Z,9.10
2023-01-23T21:30:18.508Z,9.10
2023-01-23T21:32:49.176Z,9.10
2023-01-23T21:35:20.881Z,9.00
2023-01-23T21:37:50.314Z,9.00
2023-01-23T21:40:19.358Z,9.00
2023-01-23T21:42:48.229Z,9.00
2023-01-23T21:45:17.497Z,9.00
2023-01-23T21:47:46.436Z,9.00
2023-01-23T21:50:20.727Z,9.00
2023-01-23T21:52:49.753Z,9.00
2023-01-23T21:55:18.950Z,9.00
2023-01-23T21:57:48.307Z,9.00
2023-01-23T22:00:35.506Z,9.00
2023-01-23T22:03:04.643Z,9.00
2023-01-23T22:05:36.856Z,9.00
2023-01-23T22:08:06.500Z,9.00
2023-01-23T22:10:35.482Z,9.00
2023-01-23T22:13:04.505Z,9.10
2023-01-23T22:15:33.661Z,9.10
2023-01-23T22:18:02.570Z,9.10
2023-01-23T22:20:31.495Z,9.10
2023-01-23T22:23:01.909Z,9.20
2023-01-23T22:25:30.938Z,9.20
2023-01-23T22:27:59.911Z,9.20
2023-01-23T22:30:28.828Z,9.20
2023-01-23T22:32:58.225Z,9.20
2023-01-23T22:35:27.159Z,9.30
2023-01-23T22:37:56.116Z,9.30
2023-01-23T22:40:26.670Z,9.30
2023-01-23T22:42:55.756Z,9.30
2023-01-23T22:45:24.822Z,9.30
2023-01-23T22:47:53.851Z,9.30
2023-01-23T22:50:22.868Z,9.30
2023-01-23T22:52:52.042Z,9.30
2023-01-23T22:55:21.454Z,9.20
2023-01-23T22:57:53.621Z,9.20
2023-01-23T23:00:23.253Z,9.20
2023-01-23T23:02:52.181Z,9.20
2023-01-23T23:05:21.617Z,9.20
2023-01-23T23:07:50.840Z,9.20
2023-01-23T23:10:20.241Z,9.20
2023-01-23T23:12:50.730Z,9.20
2023-01-23T23:15:20.034Z,9.20
2023-01-23T23:17:49.240Z,9.30
2023-01-23T23:20:18.654Z,9.30
2023-01-23T23:22:47.669Z,9.30
2023-01-23T23:25:16.852Z,9.40
2023-01-23T23:27:45.756Z,9.40
2023-01-23T23:30:17.057Z,9.40
2023-01-23T23:32:46.041Z,9.50
2023-01-23T23:35:15.147Z,9.50
2023-01-23T23:37:45.001Z,9.50
2023-01-23T23:40:14.503Z,9.60
2023-01-23T23:42:44.072Z,9.50
2023-01-23T23:45:13.642Z,9.50
2023-01-23T23:47:44.100Z,9.60
2023-01-23T23:50:14.176Z,9.60
2023-01-23T23:52:43.185Z,9.60
2023-01-23T23:55:12.245Z,9.60
2023-01-23T23:57:41.600Z,9.60
